sensor_id;sensor_type;location;lat;lon;timestamp;P1;durP1;ratioP1;P2;durP2;ratioP2
40471;SDS011;26174;42.908;23.800;2022-08-03T00:00:50;8.30;;;4.78;;
40471;SDS011;26174;42.908;23.800;2022-08-03T00:03:16;4.72;;;3.53;;
40471;SDS011;26174;42.908;23.800;2022-08-03T00:05:42;7.18;;;3.20;;
40471;SDS011;26174;42.908;23.800;2022-08-03T00:08:07;5.13;;;2.97;;
40471;SDS011;26174;42.908;23.800;2022-08-03T00:10:33;4.72;;;3.40;;
40471;SDS011;26174;42.908;23.800;2022-08-03T00:12:58;4.68;;;3.33;;
40471;SDS011;26174;42.908;23.800;2022-08-03T00:15:24;8.05;;;2.95;;
40471;SDS011;26174;42.908;23.800;2022-08-03T00:17:50;3.47;;;2.97;;
40471;SDS011;26174;42.908;23.800;2022-08-03T00:20:15;4.07;;;3.00;;
40471;SDS011;26174;42.908;23.800;2022-08-03T00:22:41;3.97;;;3.08;;
40471;SDS011;26174;42.908;23.800;2022-08-03T00:25:06;3.88;;;2.97;;
40471;SDS011;26174;42.908;23.800;2022-08-03T00:27:32;3.70;;;3.00;;
40471;SDS011;26174;42.908;23.800;2022-08-03T00:29:58;4.05;;;2.90;;
40471;SDS011;26174;42.908;23.800;2022-08-03T00:32:23;5.13;;;2.78;;
40471;SDS011;26174;42.908;23.800;2022-08-03T00:34:49;3.28;;;2.50;;
40471;SDS011;26174;42.908;23.800;2022-08-03T00:37:15;5.00;;;2.92;;
40471;SDS011;26174;42.908;23.800;2022-08-03T00:39:40;3.28;;;2.95;;
40471;SDS011;26174;42.908;23.800;2022-08-03T00:42:07;4.25;;;3.08;;
40471;SDS011;26174;42.908;23.800;2022-08-03T00:44:38;4.65;;;3.53;;
40471;SDS011;26174;42.908;23.800;2022-08-03T00:47:05;6.70;;;3.40;;
40471;SDS011;26174;42.908;23.800;2022-08-03T00:49:31;7.25;;;3.58;;
40471;SDS011;26174;42.908;23.800;2022-08-03T00:51:56;4.32;;;3.08;;
40471;SDS011;26174;42.908;23.800;2022-08-03T00:54:22;8.63;;;3.47;;
40471;SDS011;26174;42.908;23.800;2022-08-03T00:56:49;6.63;;;3.70;;
40471;SDS011;26174;42.908;23.800;2022-08-03T00:59:15;8.85;;;3.50;;
40471;SDS011;26174;42.908;23.800;2022-08-03T01:01:40;5.00;;;3.58;;
40471;SDS011;26174;42.908;23.800;2022-08-03T01:04:06;7.40;;;4.03;;
40471;SDS011;26174;42.908;23.800;2022-08-03T01:11:49;9.57;;;3.95;;
40471;SDS011;26174;42.908;23.800;2022-08-03T01:16:58;4.70;;;3.47;;
40471;SDS011;26174;42.908;23.800;2022-08-03T01:24:55;4.82;;;3.38;;
40471;SDS011;26174;42.908;23.800;2022-08-03T01:27:40;7.90;;;3.25;;
40471;SDS011;26174;42.908;23.800;2022-08-03T01:30:27;6.32;;;3.55;;
40471;SDS011;26174;42.908;23.800;2022-08-03T01:32:59;5.32;;;3.67;;
40471;SDS011;26174;42.908;23.800;2022-08-03T01:35:35;7.05;;;4.18;;
40471;SDS011;26174;42.908;23.800;2022-08-03T01:38:10;6.85;;;3.92;;
40471;SDS011;26174;42.908;23.800;2022-08-03T01:40:38;7.38;;;4.07;;
40471;SDS011;26174;42.908;23.800;2022-08-03T01:43:05;10.57;;;4.55;;
40471;SDS011;26174;42.908;23.800;2022-08-03T01:45:31;13.10;;;4.35;;
40471;SDS011;26174;42.908;23.800;2022-08-03T01:47:58;6.70;;;4.15;;
40471;SDS011;26174;42.908;23.800;2022-08-03T01:50:26;10.10;;;3.90;;
40471;SDS011;26174;42.908;23.800;2022-08-03T01:52:52;9.82;;;4.25;;
40471;SDS011;26174;42.908;23.800;2022-08-03T01:55:19;5.55;;;3.95;;
40471;SDS011;26174;42.908;23.800;2022-08-03T01:57:45;9.05;;;3.75;;
40471;SDS011;26174;42.908;23.800;2022-08-03T02:00:12;5.30;;;3.67;;
40471;SDS011;26174;42.908;23.800;2022-08-03T02:02:38;7.80;;;3.67;;
40471;SDS011;26174;42.908;23.800;2022-08-03T02:05:06;5.03;;;3.00;;
40471;SDS011;26174;42.908;23.800;2022-08-03T02:07:33;4.45;;;3.33;;
40471;SDS011;26174;42.908;23.800;2022-08-03T02:09:59;4.45;;;3.33;;
40471;SDS011;26174;42.908;23.800;2022-08-03T02:12:26;4.78;;;3.30;;
40471;SDS011;26174;42.908;23.800;2022-08-03T02:14:53;6.05;;;3.63;;
40471;SDS011;26174;42.908;23.800;2022-08-03T02:17:20;3.97;;;3.30;;
40471;SDS011;26174;42.908;23.800;2022-08-03T02:19:47;4.28;;;3.22;;
40471;SDS011;26174;42.908;23.800;2022-08-03T02:22:14;4.28;;;3.10;;
40471;SDS011;26174;42.908;23.800;2022-08-03T02:24:40;9.18;;;3.20;;
40471;SDS011;26174;42.908;23.800;2022-08-03T02:27:17;4.32;;;3.22;;
40471;SDS011;26174;42.908;23.800;2022-08-03T02:29:45;5.05;;;2.97;;
40471;SDS011;26174;42.908;23.800;2022-08-03T02:32:16;5.28;;;3.28;;
40471;SDS011;26174;42.908;23.800;2022-08-03T02:34:43;4.07;;;3.20;;
40471;SDS011;26174;42.908;23.800;2022-08-03T02:37:10;7.40;;;3.20;;
40471;SDS011;26174;42.908;23.800;2022-08-03T02:39:37;5.28;;;3.10;;
40471;SDS011;26174;42.908;23.800;2022-08-03T02:42:07;15.02;;;3.58;;
40471;SDS011;26174;42.908;23.800;2022-08-03T02:44:33;6.13;;;3.17;;
40471;SDS011;26174;42.908;23.800;2022-08-03T02:47:01;3.83;;;3.17;;
40471;SDS011;26174;42.908;23.800;2022-08-03T02:49:28;5.28;;;3.88;;
40471;SDS011;26174;42.908;23.800;2022-08-03T02:51:54;9.10;;;3.58;;
40471;SDS011;26174;42.908;23.800;2022-08-03T02:54:21;8.32;;;3.35;;
40471;SDS011;26174;42.908;23.800;2022-08-03T02:56:47;6.95;;;3.80;;
40471;SDS011;26174;42.908;23.800;2022-08-03T02:59:13;9.00;;;4.40;;
40471;SDS011;26174;42.908;23.800;2022-08-03T03:01:40;4.57;;;3.78;;
40471;SDS011;26174;42.908;23.800;2022-08-03T03:04:06;10.48;;;3.60;;
40471;SDS011;26174;42.908;23.800;2022-08-03T03:06:32;7.80;;;3.80;;
40471;SDS011;26174;42.908;23.800;2022-08-03T03:08:58;6.03;;;3.65;;
40471;SDS011;26174;42.908;23.800;2022-08-03T03:11:24;6.35;;;3.60;;
40471;SDS011;26174;42.908;23.800;2022-08-03T03:13:50;12.98;;;4.75;;
40471;SDS011;26174;42.908;23.800;2022-08-03T03:16:17;6.28;;;4.35;;
40471;SDS011;26174;42.908;23.800;2022-08-03T03:18:44;8.82;;;4.53;;
40471;SDS011;26174;42.908;23.800;2022-08-03T03:21:10;8.73;;;4.97;;
40471;SDS011;26174;42.908;23.800;2022-08-03T03:23:38;10.65;;;4.80;;
40471;SDS011;26174;42.908;23.800;2022-08-03T03:26:05;11.52;;;4.20;;
40471;SDS011;26174;42.908;23.800;2022-08-03T03:28:31;6.63;;;3.80;;
40471;SDS011;26174;42.908;23.800;2022-08-03T03:30:57;9.15;;;4.00;;
40471;SDS011;26174;42.908;23.800;2022-08-03T03:33:24;9.00;;;4.75;;
40471;SDS011;26174;42.908;23.800;2022-08-03T03:35:49;7.55;;;4.10;;
40471;SDS011;26174;42.908;23.800;2022-08-03T03:38:16;5.60;;;3.83;;
40471;SDS011;26174;42.908;23.800;2022-08-03T03:40:42;7.78;;;3.80;;
40471;SDS011;26174;42.908;23.800;2022-08-03T03:43:08;4.75;;;3.80;;
40471;SDS011;26174;42.908;23.800;2022-08-03T03:45:35;4.70;;;3.90;;
40471;SDS011;26174;42.908;23.800;2022-08-03T03:48:02;11.25;;;4.28;;
40471;SDS011;26174;42.908;23.800;2022-08-03T03:50:30;7.82;;;3.97;;
40471;SDS011;26174;42.908;23.800;2022-08-03T03:52:56;7.05;;;3.72;;
40471;SDS011;26174;42.908;23.800;2022-08-03T03:55:23;6.60;;;4.25;;
40471;SDS011;26174;42.908;23.800;2022-08-03T03:57:48;6.30;;;3.80;;
40471;SDS011;26174;42.908;23.800;2022-08-03T04:00:15;9.38;;;4.20;;
40471;SDS011;26174;42.908;23.800;2022-08-03T04:02:47;7.40;;;4.20;;
40471;SDS011;26174;42.908;23.800;2022-08-03T04:05:30;7.35;;;4.07;;
40471;SDS011;26174;42.908;23.800;2022-08-03T04:08:18;4.00;;;3.35;;
40471;SDS011;26174;42.908;23.800;2022-08-03T04:13:50;12.73;;;3.95;;
40471;SDS011;26174;42.908;23.800;2022-08-03T04:16:19;6.07;;;3.50;;
40471;SDS011;26174;42.908;23.800;2022-08-03T04:18:48;9.25;;;3.70;;
40471;SDS011;26174;42.908;23.800;2022-08-03T04:21:16;5.25;;;3.55;;
40471;SDS011;26174;42.908;23.800;2022-08-03T04:23:49;5.47;;;4.32;;
40471;SDS011;26174;42.908;23.800;2022-08-03T04:26:17;16.80;;;4.93;;
40471;SDS011;26174;42.908;23.800;2022-08-03T04:28:45;14.27;;;5.25;;
40471;SDS011;26174;42.908;23.800;2022-08-03T04:31:12;9.75;;;4.75;;
40471;SDS011;26174;42.908;23.800;2022-08-03T04:33:38;7.88;;;4.38;;
40471;SDS011;26174;42.908;23.800;2022-08-03T04:36:05;10.70;;;4.47;;
40471;SDS011;26174;42.908;23.800;2022-08-03T04:38:39;5.47;;;3.97;;
40471;SDS011;26174;42.908;23.800;2022-08-03T04:41:08;11.60;;;4.60;;
40471;SDS011;26174;42.908;23.800;2022-08-03T04:43:34;10.27;;;3.85;;
40471;SDS011;26174;42.908;23.800;2022-08-03T04:46:00;6.45;;;4.60;;
40471;SDS011;26174;42.908;23.800;2022-08-03T04:48:27;7.65;;;5.03;;
40471;SDS011;26174;42.908;23.800;2022-08-03T04:50:52;7.57;;;4.22;;
40471;SDS011;26174;42.908;23.800;2022-08-03T04:53:18;17.60;;;5.20;;
40471;SDS011;26174;42.908;23.800;2022-08-03T04:55:44;14.52;;;4.63;;
40471;SDS011;26174;42.908;23.800;2022-08-03T04:58:09;8.13;;;3.88;;
40471;SDS011;26174;42.908;23.800;2022-08-03T05:00:36;5.60;;;4.10;;
40471;SDS011;26174;42.908;23.800;2022-08-03T05:03:02;8.85;;;3.97;;
40471;SDS011;26174;42.908;23.800;2022-08-03T05:05:28;5.05;;;3.97;;
40471;SDS011;26174;42.908;23.800;2022-08-03T05:07:53;7.47;;;3.88;;
40471;SDS011;26174;42.908;23.800;2022-08-03T05:10:20;10.13;;;3.50;;
40471;SDS011;26174;42.908;23.800;2022-08-03T05:12:46;7.30;;;3.60;;
40471;SDS011;26174;42.908;23.800;2022-08-03T05:15:12;11.50;;;3.83;;
40471;SDS011;26174;42.908;23.800;2022-08-03T05:17:45;16.63;;;4.63;;
40471;SDS011;26174;42.908;23.800;2022-08-03T05:20:11;12.02;;;5.07;;
40471;SDS011;26174;42.908;23.800;2022-08-03T05:22:37;8.45;;;4.55;;
40471;SDS011;26174;42.908;23.800;2022-08-03T05:25:02;9.20;;;4.82;;
40471;SDS011;26174;42.908;23.800;2022-08-03T05:27:31;10.65;;;4.43;;
40471;SDS011;26174;42.908;23.800;2022-08-03T05:29:57;16.50;;;7.82;;
40471;SDS011;26174;42.908;23.800;2022-08-03T05:32:23;12.82;;;7.15;;
40471;SDS011;26174;42.908;23.800;2022-08-03T05:34:48;14.15;;;5.28;;
40471;SDS011;26174;42.908;23.800;2022-08-03T05:37:14;26.33;;;5.68;;
40471;SDS011;26174;42.908;23.800;2022-08-03T05:39:39;6.53;;;3.78;;
40471;SDS011;26174;42.908;23.800;2022-08-03T05:42:05;10.88;;;4.45;;
40471;SDS011;26174;42.908;23.800;2022-08-03T05:44:30;7.05;;;3.55;;
40471;SDS011;26174;42.908;23.800;2022-08-03T05:46:56;14.50;;;3.95;;
40471;SDS011;26174;42.908;23.800;2022-08-03T05:49:22;8.88;;;3.13;;
40471;SDS011;26174;42.908;23.800;2022-08-03T05:51:48;6.38;;;3.13;;
40471;SDS011;26174;42.908;23.800;2022-08-03T05:54:13;4.78;;;3.28;;
40471;SDS011;26174;42.908;23.800;2022-08-03T05:56:39;6.75;;;2.90;;
40471;SDS011;26174;42.908;23.800;2022-08-03T05:59:07;8.63;;;2.88;;
40471;SDS011;26174;42.908;23.800;2022-08-03T06:01:33;5.60;;;2.60;;
40471;SDS011;26174;42.908;23.800;2022-08-03T06:03:58;5.25;;;2.40;;
40471;SDS011;26174;42.908;23.800;2022-08-03T06:06:24;3.92;;;2.28;;
40471;SDS011;26174;42.908;23.800;2022-08-03T06:08:50;9.27;;;2.92;;
40471;SDS011;26174;42.908;23.800;2022-08-03T06:11:15;7.28;;;2.42;;
40471;SDS011;26174;42.908;23.800;2022-08-03T06:13:41;5.63;;;2.92;;
40471;SDS011;26174;42.908;23.800;2022-08-03T06:16:07;5.57;;;2.63;;
40471;SDS011;26174;42.908;23.800;2022-08-03T06:18:33;3.17;;;2.20;;
40471;SDS011;26174;42.908;23.800;2022-08-03T06:20:59;5.32;;;2.47;;
40471;SDS011;26174;42.908;23.800;2022-08-03T06:23:25;4.00;;;2.60;;
40471;SDS011;26174;42.908;23.800;2022-08-03T06:25:50;11.10;;;2.45;;
40471;SDS011;26174;42.908;23.800;2022-08-03T06:28:16;9.70;;;2.20;;
40471;SDS011;26174;42.908;23.800;2022-08-03T06:30:42;2.50;;;2.20;;
40471;SDS011;26174;42.908;23.800;2022-08-03T06:33:08;5.30;;;2.63;;
40471;SDS011;26174;42.908;23.800;2022-08-03T06:35:34;3.72;;;2.70;;
40471;SDS011;26174;42.908;23.800;2022-08-03T06:37:59;9.60;;;2.67;;
40471;SDS011;26174;42.908;23.800;2022-08-03T06:40:25;5.55;;;3.15;;
40471;SDS011;26174;42.908;23.800;2022-08-03T06:42:58;7.47;;;3.53;;
40471;SDS011;26174;42.908;23.800;2022-08-03T06:45:25;5.72;;;4.15;;
40471;SDS011;26174;42.908;23.800;2022-08-03T06:50:28;18.85;;;4.75;;
40471;SDS011;26174;42.908;23.800;2022-08-03T06:52:54;11.77;;;3.88;;
40471;SDS011;26174;42.908;23.800;2022-08-03T06:55:20;4.70;;;2.63;;
40471;SDS011;26174;42.908;23.800;2022-08-03T06:57:46;10.30;;;3.33;;
40471;SDS011;26174;42.908;23.800;2022-08-03T07:00:11;3.20;;;2.40;;
40471;SDS011;26174;42.908;23.800;2022-08-03T07:02:38;5.43;;;2.65;;
40471;SDS011;26174;42.908;23.800;2022-08-03T07:05:04;6.40;;;3.33;;
40471;SDS011;26174;42.908;23.800;2022-08-03T07:07:30;9.20;;;3.13;;
40471;SDS011;26174;42.908;23.800;2022-08-03T07:09:56;10.88;;;2.83;;
40471;SDS011;26174;42.908;23.800;2022-08-03T07:12:21;3.20;;;2.55;;
40471;SDS011;26174;42.908;23.800;2022-08-03T07:14:47;5.38;;;3.40;;
40471;SDS011;26174;42.908;23.800;2022-08-03T07:17:13;5.28;;;3.10;;
40471;SDS011;26174;42.908;23.800;2022-08-03T07:19:38;4.40;;;2.70;;
40471;SDS011;26174;42.908;23.800;2022-08-03T07:22:04;5.03;;;2.53;;
40471;SDS011;26174;42.908;23.800;2022-08-03T07:24:30;4.90;;;2.97;;
40471;SDS011;26174;42.908;23.800;2022-08-03T07:26:56;6.05;;;2.58;;
40471;SDS011;26174;42.908;23.800;2022-08-03T07:29:21;5.40;;;2.80;;
40471;SDS011;26174;42.908;23.800;2022-08-03T07:31:47;8.88;;;2.70;;
40471;SDS011;26174;42.908;23.800;2022-08-03T07:34:12;5.75;;;2.38;;
40471;SDS011;26174;42.908;23.800;2022-08-03T07:36:38;7.60;;;3.10;;
40471;SDS011;26174;42.908;23.800;2022-08-03T07:39:04;6.60;;;2.22;;
40471;SDS011;26174;42.908;23.800;2022-08-03T07:41:29;4.90;;;2.35;;
40471;SDS011;26174;42.908;23.800;2022-08-03T07:43:56;11.18;;;2.38;;
40471;SDS011;26174;42.908;23.800;2022-08-03T07:46:21;3.28;;;2.55;;
40471;SDS011;26174;42.908;23.800;2022-08-03T07:48:47;4.18;;;2.45;;
40471;SDS011;26174;42.908;23.800;2022-08-03T07:51:13;4.93;;;2.63;;
40471;SDS011;26174;42.908;23.800;2022-08-03T07:53:38;25.83;;;4.50;;
40471;SDS011;26174;42.908;23.800;2022-08-03T07:56:04;4.20;;;2.55;;
40471;SDS011;26174;42.908;23.800;2022-08-03T07:58:29;7.47;;;2.40;;
40471;SDS011;26174;42.908;23.800;2022-08-03T08:00:55;4.07;;;2.40;;
40471;SDS011;26174;42.908;23.800;2022-08-03T08:03:21;8.10;;;2.60;;
40471;SDS011;26174;42.908;23.800;2022-08-03T08:05:46;4.03;;;2.28;;
40471;SDS011;26174;42.908;23.800;2022-08-03T08:08:12;6.78;;;2.90;;
40471;SDS011;26174;42.908;23.800;2022-08-03T08:10:38;3.92;;;2.35;;
40471;SDS011;26174;42.908;23.800;2022-08-03T08:13:04;5.72;;;2.42;;
40471;SDS011;26174;42.908;23.800;2022-08-03T08:15:29;2.45;;;2.20;;
40471;SDS011;26174;42.908;23.800;2022-08-03T08:17:56;10.00;;;2.58;;
40471;SDS011;26174;42.908;23.800;2022-08-03T08:20:24;2.65;;;2.42;;
40471;SDS011;26174;42.908;23.800;2022-08-03T08:22:51;5.88;;;2.22;;
40471;SDS011;26174;42.908;23.800;2022-08-03T08:25:17;8.48;;;2.70;;
40471;SDS011;26174;42.908;23.800;2022-08-03T08:27:47;11.65;;;3.03;;
40471;SDS011;26174;42.908;23.800;2022-08-03T08:30:15;5.32;;;2.70;;
40471;SDS011;26174;42.908;23.800;2022-08-03T08:32:45;7.47;;;2.97;;
40471;SDS011;26174;42.908;23.800;2022-08-03T08:35:11;6.13;;;2.72;;
40471;SDS011;26174;42.908;23.800;2022-08-03T08:37:37;5.82;;;2.55;;
40471;SDS011;26174;42.908;23.800;2022-08-03T08:40:04;5.85;;;2.50;;
40471;SDS011;26174;42.908;23.800;2022-08-03T08:42:31;6.53;;;2.47;;
40471;SDS011;26174;42.908;23.800;2022-08-03T08:44:57;3.55;;;2.50;;
40471;SDS011;26174;42.908;23.800;2022-08-03T08:47:24;6.03;;;2.30;;
40471;SDS011;26174;42.908;23.800;2022-08-03T08:49:54;5.38;;;2.20;;
40471;SDS011;26174;42.908;23.800;2022-08-03T08:54:55;6.85;;;2.22;;
40471;SDS011;26174;42.908;23.800;2022-08-03T08:57:30;6.05;;;2.50;;
40471;SDS011;26174;42.908;23.800;2022-08-03T08:59:58;3.60;;;2.60;;
40471;SDS011;26174;42.908;23.800;2022-08-03T09:02:24;4.60;;;2.03;;
40471;SDS011;26174;42.908;23.800;2022-08-03T09:04:50;2.33;;;2.05;;
40471;SDS011;26174;42.908;23.800;2022-08-03T09:07:16;4.40;;;2.03;;
40471;SDS011;26174;42.908;23.800;2022-08-03T09:09:41;3.88;;;2.25;;
40471;SDS011;26174;42.908;23.800;2022-08-03T09:12:07;3.92;;;2.38;;
40471;SDS011;26174;42.908;23.800;2022-08-03T09:14:33;4.55;;;3.20;;
40471;SDS011;26174;42.908;23.800;2022-08-03T09:16:59;5.72;;;2.03;;
40471;SDS011;26174;42.908;23.800;2022-08-03T09:19:29;4.35;;;1.95;;
40471;SDS011;26174;42.908;23.800;2022-08-03T09:22:15;2.45;;;2.00;;
40471;SDS011;26174;42.908;23.800;2022-08-03T09:24:58;6.70;;;2.53;;
40471;SDS011;26174;42.908;23.800;2022-08-03T09:27:25;4.35;;;2.10;;
40471;SDS011;26174;42.908;23.800;2022-08-03T09:29:51;6.90;;;2.30;;
40471;SDS011;26174;42.908;23.800;2022-08-03T09:32:19;4.00;;;2.00;;
40471;SDS011;26174;42.908;23.800;2022-08-03T09:34:45;1.88;;;1.77;;
40471;SDS011;26174;42.908;23.800;2022-08-03T09:37:14;2.97;;;2.15;;
40471;SDS011;26174;42.908;23.800;2022-08-03T09:39:40;2.97;;;2.03;;
40471;SDS011;26174;42.908;23.800;2022-08-03T09:42:07;17.80;;;4.38;;
40471;SDS011;26174;42.908;23.800;2022-08-03T09:44:35;7.10;;;2.92;;
40471;SDS011;26174;42.908;23.800;2022-08-03T09:47:01;3.97;;;2.20;;
40471;SDS011;26174;42.908;23.800;2022-08-03T09:49:27;3.75;;;2.20;;
40471;SDS011;26174;42.908;23.800;2022-08-03T09:51:53;3.10;;;2.22;;
40471;SDS011;26174;42.908;23.800;2022-08-03T09:54:25;2.20;;;2.00;;
40471;SDS011;26174;42.908;23.800;2022-08-03T09:56:55;4.85;;;2.03;;
40471;SDS011;26174;42.908;23.800;2022-08-03T09:59:25;4.40;;;1.98;;
40471;SDS011;26174;42.908;23.800;2022-08-03T10:01:54;2.30;;;1.90;;
40471;SDS011;26174;42.908;23.800;2022-08-03T10:04:21;3.88;;;1.80;;
40471;SDS011;26174;42.908;23.800;2022-08-03T10:07:09;2.80;;;2.50;;
40471;SDS011;26174;42.908;23.800;2022-08-03T10:09:35;2.53;;;2.33;;
40471;SDS011;26174;42.908;23.800;2022-08-03T10:12:08;3.80;;;2.40;;
40471;SDS011;26174;42.908;23.800;2022-08-03T10:14:34;8.13;;;2.88;;
40471;SDS011;26174;42.908;23.800;2022-08-03T10:17:01;16.92;;;3.33;;
40471;SDS011;26174;42.908;23.800;2022-08-03T10:19:27;2.78;;;2.45;;
40471;SDS011;26174;42.908;23.800;2022-08-03T10:21:54;5.13;;;2.58;;
40471;SDS011;26174;42.908;23.800;2022-08-03T10:24:25;2.70;;;2.10;;
40471;SDS011;26174;42.908;23.800;2022-08-03T10:26:51;3.00;;;2.30;;
40471;SDS011;26174;42.908;23.800;2022-08-03T10:29:30;11.80;;;2.45;;
40471;SDS011;26174;42.908;23.800;2022-08-03T10:32:01;4.78;;;2.85;;
40471;SDS011;26174;42.908;23.800;2022-08-03T10:34:33;2.55;;;2.35;;
40471;SDS011;26174;42.908;23.800;2022-08-03T10:36:59;6.35;;;2.38;;
40471;SDS011;26174;42.908;23.800;2022-08-03T10:39:28;6.03;;;2.30;;
40471;SDS011;26174;42.908;23.800;2022-08-03T10:41:54;2.72;;;2.42;;
40471;SDS011;26174;42.908;23.800;2022-08-03T10:44:23;10.23;;;2.50;;
40471;SDS011;26174;42.908;23.800;2022-08-03T10:46:50;6.03;;;2.60;;
40471;SDS011;26174;42.908;23.800;2022-08-03T10:49:16;2.33;;;2.10;;
40471;SDS011;26174;42.908;23.800;2022-08-03T10:51:43;2.80;;;2.03;;
40471;SDS011;26174;42.908;23.800;2022-08-03T10:57:44;5.85;;;2.45;;
40471;SDS011;26174;42.908;23.800;2022-08-03T11:00:12;3.95;;;2.20;;
40471;SDS011;26174;42.908;23.800;2022-08-03T11:05:31;5.50;;;2.55;;
40471;SDS011;26174;42.908;23.800;2022-08-03T11:14:02;4.20;;;2.20;;
40471;SDS011;26174;42.908;23.800;2022-08-03T11:16:31;6.03;;;2.20;;
40471;SDS011;26174;42.908;23.800;2022-08-03T11:18:59;5.63;;;2.33;;
40471;SDS011;26174;42.908;23.800;2022-08-03T11:29:52;4.95;;;3.20;;
40471;SDS011;26174;42.908;23.800;2022-08-03T11:35:15;4.35;;;2.80;;
40471;SDS011;26174;42.908;23.800;2022-08-03T11:48:42;2.50;;;2.30;;
40471;SDS011;26174;42.908;23.800;2022-08-03T11:51:25;4.43;;;2.53;;
40471;SDS011;26174;42.908;23.800;2022-08-03T11:53:59;4.50;;;2.35;;
40471;SDS011;26174;42.908;23.800;2022-08-03T11:56:26;3.67;;;2.70;;
40471;SDS011;26174;42.908;23.800;2022-08-03T11:58:56;3.03;;;2.30;;
40471;SDS011;26174;42.908;23.800;2022-08-03T12:01:23;2.67;;;2.30;;
40471;SDS011;26174;42.908;23.800;2022-08-03T12:03:49;6.57;;;2.88;;
40471;SDS011;26174;42.908;23.800;2022-08-03T12:06:16;2.47;;;2.28;;
40471;SDS011;26174;42.908;23.800;2022-08-03T12:08:43;5.78;;;2.58;;
40471;SDS011;26174;42.908;23.800;2022-08-03T12:11:10;5.15;;;2.83;;
40471;SDS011;26174;42.908;23.800;2022-08-03T12:16:16;4.80;;;3.22;;
40471;SDS011;26174;42.908;23.800;2022-08-03T12:19:03;5.07;;;3.08;;
40471;SDS011;26174;42.908;23.800;2022-08-03T12:21:30;6.10;;;2.92;;
40471;SDS011;26174;42.908;23.800;2022-08-03T12:23:59;5.10;;;3.38;;
40471;SDS011;26174;42.908;23.800;2022-08-03T12:26:29;4.13;;;2.70;;
40471;SDS011;26174;42.908;23.800;2022-08-03T12:29:06;5.30;;;2.92;;
40471;SDS011;26174;42.908;23.800;2022-08-03T12:31:32;6.57;;;2.80;;
40471;SDS011;26174;42.908;23.800;2022-08-03T12:34:02;2.90;;;2.70;;
40471;SDS011;26174;42.908;23.800;2022-08-03T12:36:32;7.32;;;3.03;;
40471;SDS011;26174;42.908;23.800;2022-08-03T12:38:59;3.72;;;2.70;;
40471;SDS011;26174;42.908;23.800;2022-08-03T12:41:37;3.60;;;2.70;;
40471;SDS011;26174;42.908;23.800;2022-08-03T12:44:31;4.38;;;2.58;;
40471;SDS011;26174;42.908;23.800;2022-08-03T12:46:58;7.20;;;2.72;;
40471;SDS011;26174;42.908;23.800;2022-08-03T12:49:24;8.43;;;2.55;;
40471;SDS011;26174;42.908;23.800;2022-08-03T12:54:19;6.20;;;2.35;;
40471;SDS011;26174;42.908;23.800;2022-08-03T13:05:28;2.80;;;2.42;;
40471;SDS011;26174;42.908;23.800;2022-08-03T13:07:54;2.80;;;2.38;;
40471;SDS011;26174;42.908;23.800;2022-08-03T13:10:27;4.03;;;2.65;;
40471;SDS011;26174;42.908;23.800;2022-08-03T13:12:55;6.13;;;3.10;;
40471;SDS011;26174;42.908;23.800;2022-08-03T13:15:27;9.07;;;2.85;;
40471;SDS011;26174;42.908;23.800;2022-08-03T13:17:57;5.53;;;3.00;;
40471;SDS011;26174;42.908;23.800;2022-08-03T13:20:23;13.52;;;3.50;;
40471;SDS011;26174;42.908;23.800;2022-08-03T13:22:49;7.35;;;3.35;;
40471;SDS011;26174;42.908;23.800;2022-08-03T13:25:15;6.35;;;3.03;;
40471;SDS011;26174;42.908;23.800;2022-08-03T13:27:40;5.65;;;3.50;;
40471;SDS011;26174;42.908;23.800;2022-08-03T13:30:07;6.78;;;2.70;;
40471;SDS011;26174;42.908;23.800;2022-08-03T13:32:33;3.42;;;2.90;;
40471;SDS011;26174;42.908;23.800;2022-08-03T13:34:59;3.17;;;2.65;;
40471;SDS011;26174;42.908;23.800;2022-08-03T13:37:26;3.90;;;3.00;;
40471;SDS011;26174;42.908;23.800;2022-08-03T13:39:52;8.38;;;3.20;;
40471;SDS011;26174;42.908;23.800;2022-08-03T13:42:18;9.55;;;2.72;;
40471;SDS011;26174;42.908;23.800;2022-08-03T13:44:43;9.65;;;3.50;;
40471;SDS011;26174;42.908;23.800;2022-08-03T13:47:09;5.32;;;3.38;;
40471;SDS011;26174;42.908;23.800;2022-08-03T13:49:34;3.72;;;2.80;;
40471;SDS011;26174;42.908;23.800;2022-08-03T13:52:00;3.58;;;3.17;;
40471;SDS011;26174;42.908;23.800;2022-08-03T13:54:26;3.28;;;2.97;;
40471;SDS011;26174;42.908;23.800;2022-08-03T13:56:52;7.38;;;2.83;;
40471;SDS011;26174;42.908;23.800;2022-08-03T13:59:22;7.53;;;2.97;;
40471;SDS011;26174;42.908;23.800;2022-08-03T14:01:48;6.05;;;2.55;;
40471;SDS011;26174;42.908;23.800;2022-08-03T14:04:15;2.97;;;2.67;;
40471;SDS011;26174;42.908;23.800;2022-08-03T14:06:41;4.05;;;3.03;;
40471;SDS011;26174;42.908;23.800;2022-08-03T14:09:09;5.32;;;2.83;;
40471;SDS011;26174;42.908;23.800;2022-08-03T14:11:38;3.70;;;2.83;;
40471;SDS011;26174;42.908;23.800;2022-08-03T14:14:04;5.13;;;2.63;;
40471;SDS011;26174;42.908;23.800;2022-08-03T14:16:30;7.90;;;3.80;;
40471;SDS011;26174;42.908;23.800;2022-08-03T14:18:55;4.18;;;3.17;;
40471;SDS011;26174;42.908;23.800;2022-08-03T14:21:21;3.30;;;2.95;;
40471;SDS011;26174;42.908;23.800;2022-08-03T14:23:47;3.55;;;2.85;;
40471;SDS011;26174;42.908;23.800;2022-08-03T14:26:12;4.95;;;3.65;;
40471;SDS011;26174;42.908;23.800;2022-08-03T14:28:41;4.25;;;2.63;;
40471;SDS011;26174;42.908;23.800;2022-08-03T14:31:07;9.00;;;3.30;;
40471;SDS011;26174;42.908;23.800;2022-08-03T14:33:32;2.83;;;2.40;;
40471;SDS011;26174;42.908;23.800;2022-08-03T14:35:58;3.08;;;2.50;;
40471;SDS011;26174;42.908;23.800;2022-08-03T14:38:23;3.38;;;2.42;;
40471;SDS011;26174;42.908;23.800;2022-08-03T14:40:49;5.05;;;3.40;;
40471;SDS011;26174;42.908;23.800;2022-08-03T14:43:16;4.38;;;3.10;;
40471;SDS011;26174;42.908;23.800;2022-08-03T14:45:45;4.07;;;3.50;;
40471;SDS011;26174;42.908;23.800;2022-08-03T14:48:11;3.10;;;2.80;;
40471;SDS011;26174;42.908;23.800;2022-08-03T14:50:36;3.88;;;2.80;;
40471;SDS011;26174;42.908;23.800;2022-08-03T14:53:02;5.20;;;2.70;;
40471;SDS011;26174;42.908;23.800;2022-08-03T14:55:28;5.57;;;3.13;;
40471;SDS011;26174;42.908;23.800;2022-08-03T14:57:54;4.00;;;2.63;;
40471;SDS011;26174;42.908;23.800;2022-08-03T15:00:19;6.82;;;2.88;;
40471;SDS011;26174;42.908;23.800;2022-08-03T15:02:45;5.68;;;2.58;;
40471;SDS011;26174;42.908;23.800;2022-08-03T15:05:10;5.10;;;2.42;;
40471;SDS011;26174;42.908;23.800;2022-08-03T15:07:37;6.57;;;2.40;;
40471;SDS011;26174;42.908;23.800;2022-08-03T15:10:03;8.13;;;3.03;;
40471;SDS011;26174;42.908;23.800;2022-08-03T15:12:29;2.60;;;2.40;;
40471;SDS011;26174;42.908;23.800;2022-08-03T15:14:54;5.97;;;2.63;;
40471;SDS011;26174;42.908;23.800;2022-08-03T15:17:20;9.13;;;3.80;;
40471;SDS011;26174;42.908;23.800;2022-08-03T15:19:46;14.25;;;4.43;;
40471;SDS011;26174;42.908;23.800;2022-08-03T15:22:12;4.00;;;3.30;;
40471;SDS011;26174;42.908;23.800;2022-08-03T15:24:40;11.68;;;3.50;;
40471;SDS011;26174;42.908;23.800;2022-08-03T15:27:06;6.43;;;2.53;;
40471;SDS011;26174;42.908;23.800;2022-08-03T15:29:31;6.03;;;2.17;;
40471;SDS011;26174;42.908;23.800;2022-08-03T15:31:57;5.93;;;2.78;;
40471;SDS011;26174;42.908;23.800;2022-08-03T15:34:22;4.22;;;3.08;;
40471;SDS011;26174;42.908;23.800;2022-08-03T15:36:48;7.47;;;2.67;;
40471;SDS011;26174;42.908;23.800;2022-08-03T15:39:13;6.40;;;2.50;;
40471;SDS011;26174;42.908;23.800;2022-08-03T15:41:39;4.28;;;2.78;;
40471;SDS011;26174;42.908;23.800;2022-08-03T15:44:05;5.47;;;2.50;;